Raritan, Illinois
Current Conditions -  °F | °C
As of 12:55 AM on Sunday 26 Oct 2014 (Local Time) from KMQB Reporting Station
Clear Clear  
Wind Chill: 45°   Ceiling: Unl
Heat Index: 47°   Visibility: 10mi
Dew Point: 38°   Wind: 6mph
Humidity: 71%   Direction: 340°NNW
Pressure: 30.07"   Gusts: NA
Location:  40.7°N, 90.83°W
Report Text: KMQB 260555Z AUTO 34005KT 10SM CLR 09/04 A3007 RMK AO2 T00850035 10136 20085 402400079
Loading
Personal Weather Stations






























Interactive Weather Map New forecast layout! Learn more

10-Day Weather Forecast

Advertisements
Track Severe Weather on mobile